createdAt,value
2023-09-09T00:01:33.449Z,13.90
2023-09-09T00:04:00.713Z,11.80
2023-09-09T00:06:27.343Z,12.27
2023-09-09T00:08:53.940Z,11.95
2023-09-09T00:11:20.449Z,11.70
2023-09-09T00:13:47.087Z,12.30
2023-09-09T00:16:14.226Z,12.10
2023-09-09T00:18:40.893Z,12.85
2023-09-09T00:21:07.353Z,11.75
2023-09-09T00:23:33.867Z,12.33
2023-09-09T00:26:00.443Z,12.68
2023-09-09T00:28:26.971Z,12.27
2023-09-09T00:30:53.454Z,11.68
2023-09-09T00:33:20.011Z,11.98
2023-09-09T00:35:46.532Z,11.93
2023-09-09T00:38:15.064Z,11.50
2023-09-09T00:40:45.893Z,11.02
2023-09-09T00:43:12.446Z,10.73
2023-09-09T00:45:40.373Z,11.60
2023-09-09T00:48:07.167Z,10.83
2023-09-09T00:50:33.849Z,11.85
2023-09-09T00:53:00.585Z,10.88
2023-09-09T00:55:28.325Z,10.80
2023-09-09T00:57:54.903Z,11.07
2023-09-09T01:00:21.382Z,11.57
2023-09-09T01:02:48.038Z,12.02
2023-09-09T01:05:16.287Z,10.98
2023-09-09T01:07:47.000Z,11.63
2023-09-09T01:10:15.081Z,11.70
2023-09-09T01:12:43.351Z,12.45
2023-09-09T01:15:11.149Z,11.95
2023-09-09T01:17:38.971Z,12.50
2023-09-09T01:20:13.372Z,11.52
2023-09-09T01:22:41.465Z,11.70
2023-09-09T01:25:08.608Z,12.20
2023-09-09T01:27:35.170Z,13.95
2023-09-09T01:30:01.902Z,14.35
2023-09-09T01:32:28.496Z,14.25
2023-09-09T01:34:55.004Z,14.43
2023-09-09T01:37:21.569Z,14.50
2023-09-09T01:39:48.979Z,15.43
2023-09-09T01:42:18.577Z,16.65
2023-09-09T01:44:46.884Z,15.88
2023-09-09T01:47:14.920Z,16.77
2023-09-09T01:49:42.933Z,18.00
2023-09-09T01:52:09.846Z,18.85
2023-09-09T01:54:36.897Z,17.63
2023-09-09T01:57:03.662Z,17.45
2023-09-09T01:59:30.237Z,18.00
2023-09-09T02:01:57.216Z,16.17
2023-09-09T02:04:23.803Z,15.18
2023-09-09T02:06:50.284Z,14.73
2023-09-09T02:09:16.931Z,15.68
2023-09-09T02:11:43.439Z,15.55
2023-09-09T02:14:09.997Z,14.77
2023-09-09T02:16:36.495Z,17.40
2023-09-09T02:19:03.079Z,18.45
2023-09-09T02:21:30.503Z,17.85
2023-09-09T02:23:57.063Z,18.13
2023-09-09T02:26:23.592Z,18.10
2023-09-09T02:28:50.655Z,18.83
2023-09-09T02:31:17.330Z,18.90
2023-09-09T02:33:43.879Z,21.02
2023-09-09T02:36:10.446Z,21.10
2023-09-09T02:38:37.702Z,21.33
2023-09-09T02:41:04.287Z,22.05
2023-09-09T02:43:31.269Z,24.33
2023-09-09T02:45:57.884Z,24.48
2023-09-09T02:48:24.472Z,26.42
2023-09-09T02:50:50.992Z,26.33
2023-09-09T02:53:17.505Z,26.63
2023-09-09T02:55:43.967Z,26.70
2023-09-09T02:58:13.841Z,26.80
2023-09-09T03:00:40.476Z,26.80
2023-09-09T03:03:07.557Z,26.27
2023-09-09T03:05:37.540Z,26.10
2023-09-09T03:08:05.815Z,26.70
2023-09-09T03:10:32.834Z,25.23
2023-09-09T03:13:00.077Z,25.77
2023-09-09T03:15:26.635Z,27.43
2023-09-09T03:17:53.208Z,27.95
2023-09-09T03:20:19.795Z,27.85
2023-09-09T03:22:46.301Z,28.42
2023-09-09T03:25:12.783Z,28.23
2023-09-09T03:27:39.332Z,27.93
2023-09-09T03:30:06.382Z,26.98
2023-09-09T03:32:32.916Z,25.48
2023-09-09T03:34:59.366Z,27.35
2023-09-09T03:37:26.217Z,27.33
2023-09-09T03:39:52.840Z,24.53
2023-09-09T03:42:19.704Z,25.17
2023-09-09T03:44:46.175Z,26.27
2023-09-09T03:47:12.633Z,25.75
2023-09-09T03:49:39.127Z,26.27
2023-09-09T03:52:05.898Z,27.30
2023-09-09T03:54:32.501Z,26.40
2023-09-09T03:56:58.960Z,26.85
2023-09-09T03:59:30.382Z,27.48
2023-09-09T04:01:57.996Z,25.95
2023-09-09T04:04:25.142Z,28.53
2023-09-09T04:06:51.790Z,26.92
2023-09-09T04:09:23.961Z,27.95
2023-09-09T04:11:50.632Z,28.50
2023-09-09T04:14:18.528Z,29.15
2023-09-09T04:16:45.162Z,29.07
2023-09-09T04:19:11.780Z,28.13
2023-09-09T04:21:38.235Z,29.63
2023-09-09T04:24:05.037Z,29.55
2023-09-09T04:26:31.510Z,29.73
2023-09-09T04:28:58.043Z,31.07
2023-09-09T04:31:24.525Z,30.23
2023-09-09T04:33:51.071Z,31.10
2023-09-09T04:36:17.578Z,30.15
2023-09-09T04:38:44.284Z,27.65
2023-09-09T04:41:10.855Z,31.17
2023-09-09T04:43:37.551Z,28.25
2023-09-09T04:46:04.319Z,29.42
2023-09-09T04:48:31.021Z,30.08
2023-09-09T04:50:57.796Z,28.55
2023-09-09T04:53:24.271Z,27.80
2023-09-09T04:55:50.777Z,27.75
2023-09-09T04:58:17.380Z,28.67
2023-09-09T05:00:43.858Z,27.10
2023-09-09T05:03:10.487Z,28.02
2023-09-09T05:05:37.086Z,26.47
2023-09-09T05:08:03.800Z,26.73
2023-09-09T05:10:31.268Z,25.25
2023-09-09T05:12:57.920Z,27.23
2023-09-09T05:15:24.455Z,28.95
2023-09-09T05:17:51.045Z,29.20
2023-09-09T05:20:17.843Z,29.15
2023-09-09T05:22:44.399Z,30.33
2023-09-09T05:25:10.915Z,28.30
2023-09-09T05:27:37.435Z,28.08
2023-09-09T05:30:04.991Z,29.30
2023-09-09T05:32:31.572Z,27.60
2023-09-09T05:34:58.100Z,27.02
2023-09-09T05:37:27.704Z,28.33
2023-09-09T05:39:54.248Z,28.00
2023-09-09T05:42:20.689Z,28.50
2023-09-09T05:44:47.160Z,28.60
2023-09-09T05:47:13.708Z,28.17
2023-09-09T05:49:40.726Z,28.17
2023-09-09T05:52:08.227Z,31.02
2023-09-09T05:54:34.895Z,36.27
2023-09-09T05:57:01.695Z,37.78
2023-09-09T05:59:28.297Z,38.63
2023-09-09T06:01:55.108Z,36.20
2023-09-09T06:04:22.387Z,41.78
2023-09-09T06:06:49.508Z,40.60
2023-09-09T06:09:16.379Z,41.35
2023-09-09T06:11:43.009Z,43.90
2023-09-09T06:14:09.653Z,44.72
2023-09-09T06:16:36.780Z,44.55
2023-09-09T06:19:03.363Z,43.80
2023-09-09T06:21:30.040Z,45.05
2023-09-09T06:23:56.481Z,48.33
2023-09-09T06:26:22.975Z,45.67
2023-09-09T06:28:49.683Z,46.03
2023-09-09T06:31:16.252Z,47.73
2023-09-09T06:33:44.954Z,44.50
2023-09-09T06:36:12.222Z,42.38
2023-09-09T06:38:38.867Z,43.80
2023-09-09T06:41:05.773Z,40.00
2023-09-09T06:43:32.241Z,38.27
2023-09-09T06:46:00.983Z,41.60
2023-09-09T06:48:27.805Z,41.90
2023-09-09T06:50:54.380Z,36.97
2023-09-09T06:53:20.926Z,37.85
2023-09-09T06:55:48.564Z,36.97
2023-09-09T06:58:15.387Z,39.92
2023-09-09T07:00:44.139Z,38.55
2023-09-09T07:03:10.883Z,39.13
2023-09-09T07:05:37.462Z,39.53
2023-09-09T07:08:04.292Z,38.40
2023-09-09T07:10:31.772Z,38.50
2023-09-09T07:12:58.591Z,37.42
2023-09-09T07:15:25.278Z,38.78
2023-09-09T07:17:51.901Z,38.05
2023-09-09T07:20:18.500Z,40.10
2023-09-09T07:22:45.099Z,39.85
2023-09-09T07:25:11.745Z,39.47
2023-09-09T07:27:38.341Z,41.58
2023-09-09T07:30:06.139Z,41.40
2023-09-09T07:32:33.360Z,41.80
2023-09-09T07:35:04.198Z,42.75
2023-09-09T07:37:30.845Z,42.72
2023-09-09T07:40:01.824Z,43.78
2023-09-09T07:42:28.583Z,42.85
2023-09-09T07:44:55.052Z,43.80
2023-09-09T07:47:22.270Z,47.00
2023-09-09T07:49:48.969Z,46.63
2023-09-09T07:52:15.940Z,46.30
2023-09-09T07:54:42.537Z,46.88
2023-09-09T07:57:09.074Z,45.57
2023-09-09T07:59:35.568Z,48.92
2023-09-09T08:02:03.888Z,46.88
2023-09-09T08:04:30.556Z,48.58
2023-09-09T08:06:57.626Z,48.38
2023-09-09T08:09:24.281Z,48.30
2023-09-09T08:11:50.798Z,47.97
2023-09-09T08:14:19.319Z,46.50
2023-09-09T08:16:46.314Z,43.60
2023-09-09T08:19:13.099Z,49.53
2023-09-09T08:21:39.728Z,46.67
2023-09-09T08:24:06.376Z,45.30
2023-09-09T08:26:33.024Z,45.33
2023-09-09T08:29:00.070Z,42.70
2023-09-09T08:31:27.221Z,39.45
2023-09-09T08:33:53.950Z,41.00
2023-09-09T08:36:20.458Z,38.70
2023-09-09T08:38:47.032Z,33.42
2023-09-09T08:41:39.536Z,28.50
2023-09-09T08:44:21.130Z,32.38
2023-09-09T08:46:48.185Z,32.35
2023-09-09T08:49:18.300Z,31.17
2023-09-09T08:51:59.651Z,30.60
2023-09-09T08:54:27.408Z,28.92
2023-09-09T08:56:54.661Z,28.15
2023-09-09T08:59:22.755Z,28.00
2023-09-09T09:01:51.881Z,25.58
2023-09-09T09:04:19.463Z,24.70
2023-09-09T09:06:49.919Z,27.80
2023-09-09T09:09:17.920Z,22.03
2023-09-09T09:11:45.207Z,20.90
2023-09-09T09:14:11.812Z,21.30
2023-09-09T09:16:42.562Z,19.95
2023-09-09T09:19:19.102Z,18.88
2023-09-09T09:21:45.745Z,18.58
2023-09-09T09:24:12.306Z,17.95
2023-09-09T09:26:38.798Z,18.90
2023-09-09T09:29:08.420Z,19.33
2023-09-09T09:31:35.019Z,19.92
2023-09-09T09:34:01.545Z,19.63
2023-09-09T09:36:28.590Z,18.90
2023-09-09T09:38:57.409Z,17.98
2023-09-09T09:41:25.053Z,18.50
2023-09-09T09:43:52.225Z,18.73
2023-09-09T09:46:22.935Z,18.77
2023-09-09T09:48:50.395Z,17.08
2023-09-09T09:51:17.411Z,18.33
2023-09-09T09:53:50.027Z,17.10
2023-09-09T09:56:17.421Z,15.57
2023-09-09T09:58:45.576Z,16.20
2023-09-09T10:01:12.514Z,14.82
2023-09-09T10:03:44.956Z,13.02
2023-09-09T10:06:13.454Z,12.88
2023-09-09T10:08:47.553Z,12.40
2023-09-09T10:11:18.248Z,12.37
2023-09-09T10:13:54.339Z,10.70
2023-09-09T10:16:21.765Z,10.90
2023-09-09T10:18:50.973Z,11.18
2023-09-09T10:21:31.764Z,11.68
2023-09-09T10:24:07.292Z,12.40
2023-09-09T10:26:36.040Z,10.35
2023-09-09T10:29:03.293Z,11.20
2023-09-09T10:31:30.690Z,11.02
2023-09-09T10:34:00.268Z,9.40
2023-09-09T10:36:28.066Z,10.03
2023-09-09T10:38:59.396Z,10.02
2023-09-09T10:41:25.959Z,12.10
2023-09-09T10:43:52.489Z,9.73
2023-09-09T10:46:33.833Z,9.77
2023-09-09T10:49:04.665Z,9.77
2023-09-09T10:51:45.641Z,10.40
2023-09-09T10:54:13.873Z,10.98
2023-09-09T10:57:01.160Z,11.45
2023-09-09T10:59:30.409Z,12.20
2023-09-09T11:02:16.723Z,10.73
2023-09-09T11:04:43.693Z,9.57
2023-09-09T11:07:16.724Z,10.75
2023-09-09T11:09:54.095Z,9.95
2023-09-09T11:12:27.263Z,9.73
2023-09-09T11:15:08.230Z,10.13
2023-09-09T11:17:42.249Z,11.32
2023-09-09T11:20:12.495Z,9.90
2023-09-09T11:22:43.164Z,9.05
2023-09-09T11:25:10.132Z,9.30
2023-09-09T11:27:38.415Z,9.60
2023-09-09T11:30:05.864Z,8.95
2023-09-09T11:32:33.638Z,10.05
2023-09-09T11:35:00.492Z,7.72
2023-09-09T11:37:30.122Z,7.05
2023-09-09T11:39:57.396Z,6.60
2023-09-09T11:42:24.080Z,6.55
2023-09-09T11:44:50.902Z,7.35
2023-09-09T11:47:18.752Z,9.18
2023-09-09T11:49:52.246Z,10.00
2023-09-09T11:52:24.413Z,9.60
2023-09-09T11:54:51.317Z,8.50
2023-09-09T11:57:17.976Z,8.27
2023-09-09T11:59:54.452Z,7.38
2023-09-09T12:02:27.072Z,8.80
2023-09-09T12:04:59.252Z,8.27
2023-09-09T12:07:33.821Z,8.40
2023-09-09T12:10:01.491Z,8.07
2023-09-09T12:12:29.318Z,8.82
2023-09-09T12:14:59.063Z,7.95
2023-09-09T12:17:25.903Z,8.07
2023-09-09T12:19:56.910Z,8.82
2023-09-09T12:22:48.170Z,8.02
2023-09-09T12:25:34.546Z,9.10
2023-09-09T12:28:01.220Z,7.15
2023-09-09T12:30:35.337Z,8.37
2023-09-09T12:33:15.637Z,7.10
2023-09-09T12:35:49.288Z,8.93
2023-09-09T12:38:16.449Z,7.70
2023-09-09T12:40:53.531Z,8.32
2023-09-09T12:43:26.139Z,8.20
2023-09-09T12:45:57.470Z,9.32
2023-09-09T12:48:24.381Z,8.15
2023-09-09T12:50:50.868Z,9.70
2023-09-09T12:53:18.561Z,7.60
2023-09-09T12:55:45.149Z,8.80
2023-09-09T12:58:11.950Z,7.53
2023-09-09T13:00:38.546Z,7.65
2023-09-09T13:03:05.493Z,7.85
2023-09-09T13:05:33.153Z,6.97
2023-09-09T13:07:59.627Z,8.70
2023-09-09T13:10:26.334Z,9.98
2023-09-09T13:12:54.416Z,8.50
2023-09-09T13:15:22.149Z,7.60
2023-09-09T13:17:48.609Z,8.40
2023-09-09T13:20:15.083Z,8.23
2023-09-09T13:22:41.541Z,8.38
2023-09-09T13:25:08.631Z,8.27
2023-09-09T13:27:38.707Z,7.50
2023-09-09T13:30:06.420Z,8.32
2023-09-09T13:32:33.067Z,7.90
2023-09-09T13:35:00.098Z,8.18
2023-09-09T13:37:27.910Z,8.35
2023-09-09T13:39:54.776Z,8.13
2023-09-09T13:42:21.892Z,8.30
2023-09-09T13:45:10.164Z,6.50
2023-09-09T13:47:35.395Z,6.80
2023-09-09T13:50:04.324Z,7.10
2023-09-09T13:52:31.245Z,6.47
2023-09-09T13:54:57.736Z,6.30
2023-09-09T13:57:25.232Z,6.30
2023-09-09T13:59:52.274Z,7.55
2023-09-09T14:02:19.060Z,5.80
2023-09-09T14:04:45.684Z,6.68
2023-09-09T14:07:12.263Z,6.25
2023-09-09T14:09:38.895Z,6.83
2023-09-09T14:12:05.872Z,6.53
2023-09-09T14:14:35.162Z,6.28
2023-09-09T14:17:01.790Z,6.40
2023-09-09T14:19:29.196Z,6.38
2023-09-09T14:21:55.707Z,6.60
2023-09-09T14:24:22.286Z,5.80
2023-09-09T14:26:48.828Z,6.20
2023-09-09T14:29:15.282Z,6.00
2023-09-09T14:31:41.752Z,6.20
2023-09-09T14:34:09.218Z,5.67
2023-09-09T14:36:35.800Z,5.60
2023-09-09T14:39:02.512Z,5.13
2023-09-09T14:41:29.104Z,6.30
2023-09-09T14:43:55.663Z,6.90
2023-09-09T14:46:25.258Z,5.63
2023-09-09T14:49:02.808Z,5.70
2023-09-09T14:51:34.082Z,6.18
2023-09-09T14:54:05.838Z,5.78
2023-09-09T14:56:33.392Z,6.63
2023-09-09T14:58:59.944Z,6.67
2023-09-09T15:01:26.878Z,5.75
2023-09-09T15:03:53.421Z,5.90
2023-09-09T15:06:19.960Z,6.22
2023-09-09T15:08:46.605Z,6.10
2023-09-09T15:11:13.169Z,5.57
2023-09-09T15:13:39.698Z,5.68
2023-09-09T15:16:07.739Z,5.90
2023-09-09T15:18:35.884Z,6.05
2023-09-09T15:21:03.980Z,6.25
2023-09-09T15:23:31.275Z,5.97
2023-09-09T15:25:57.893Z,6.63
2023-09-09T15:28:24.413Z,6.10
2023-09-09T15:30:56.373Z,5.43
2023-09-09T15:33:23.683Z,6.03
2023-09-09T15:35:59.829Z,6.17
2023-09-09T15:38:26.510Z,5.93
2023-09-09T15:40:53.521Z,6.35
2023-09-09T15:43:20.366Z,6.03
2023-09-09T15:45:49.788Z,5.60
2023-09-09T15:48:17.057Z,6.03
2023-09-09T15:50:43.730Z,5.57
2023-09-09T15:53:10.337Z,5.90
2023-09-09T15:55:37.004Z,6.10
2023-09-09T15:58:05.058Z,5.63
2023-09-09T16:00:32.510Z,5.73
2023-09-09T16:02:59.279Z,5.53
2023-09-09T16:05:27.089Z,6.80
2023-09-09T16:07:53.694Z,6.00
2023-09-09T16:10:20.285Z,6.97
2023-09-09T16:12:46.924Z,6.90
2023-09-09T16:15:13.443Z,6.28
2023-09-09T16:17:41.225Z,6.38
2023-09-09T16:20:08.974Z,6.63
2023-09-09T16:22:35.628Z,6.82
2023-09-09T16:25:02.598Z,7.00
2023-09-09T16:27:29.180Z,6.50
2023-09-09T16:29:55.684Z,7.47
2023-09-09T16:32:22.180Z,7.78
2023-09-09T16:34:48.888Z,6.72
2023-09-09T16:37:15.713Z,7.07
2023-09-09T16:39:42.172Z,6.93
2023-09-09T16:42:08.708Z,8.05
2023-09-09T16:44:35.268Z,21.23
2023-09-09T16:47:01.947Z,10.43
2023-09-09T16:49:28.593Z,7.07
2023-09-09T16:51:55.043Z,6.95
2023-09-09T16:54:21.639Z,6.38
2023-09-09T16:56:50.303Z,6.28
2023-09-09T16:59:16.810Z,7.70
2023-09-09T17:01:43.878Z,7.00
2023-09-09T17:04:10.592Z,7.85
2023-09-09T17:06:37.106Z,6.20
2023-09-09T17:09:04.858Z,6.53
2023-09-09T17:11:31.350Z,11.98
2023-09-09T17:13:57.829Z,12.00
2023-09-09T17:16:24.427Z,8.25
2023-09-09T17:18:51.032Z,7.72
2023-09-09T17:21:17.686Z,7.65
2023-09-09T17:23:44.337Z,9.30
2023-09-09T17:26:10.830Z,10.53
2023-09-09T17:28:37.374Z,9.68
2023-09-09T17:31:04.519Z,8.27
2023-09-09T17:33:31.049Z,8.07
2023-09-09T17:35:57.907Z,7.43
2023-09-09T17:38:24.406Z,8.70
2023-09-09T17:40:51.036Z,9.30
2023-09-09T17:43:17.543Z,9.23
2023-09-09T17:45:44.094Z,9.75
2023-09-09T17:48:10.675Z,9.35
2023-09-09T17:50:37.358Z,9.23
2023-09-09T17:53:04.059Z,7.82
2023-09-09T17:55:30.860Z,9.23
2023-09-09T17:57:57.358Z,12.05
2023-09-09T18:00:23.896Z,14.60
2023-09-09T18:02:50.481Z,19.20
2023-09-09T18:05:17.462Z,22.60
2023-09-09T18:07:45.183Z,23.25
2023-09-09T18:10:11.755Z,21.27
2023-09-09T18:12:39.466Z,15.35
2023-09-09T18:15:06.725Z,11.93
2023-09-09T18:17:33.499Z,9.70
2023-09-09T18:20:00.158Z,9.63
2023-09-09T18:22:27.223Z,12.85
2023-09-09T18:24:53.835Z,15.02
2023-09-09T18:27:20.301Z,13.20
2023-09-09T18:29:46.774Z,10.88
2023-09-09T18:32:13.252Z,10.50
2023-09-09T18:34:39.891Z,11.20
2023-09-09T18:37:06.651Z,12.63
2023-09-09T18:39:34.085Z,10.30
2023-09-09T18:42:00.708Z,9.88
2023-09-09T18:44:27.270Z,10.25
2023-09-09T18:46:55.647Z,10.90
2023-09-09T18:49:22.306Z,10.68
2023-09-09T18:51:48.961Z,9.73
2023-09-09T18:54:15.401Z,9.18
2023-09-09T18:56:41.883Z,10.15
2023-09-09T18:59:08.667Z,9.60
2023-09-09T19:01:35.884Z,11.38
2023-09-09T19:04:02.580Z,11.15
2023-09-09T19:06:29.194Z,11.52
2023-09-09T19:08:55.646Z,12.23
2023-09-09T19:11:22.114Z,10.63
2023-09-09T19:13:48.639Z,11.45
2023-09-09T19:16:15.282Z,11.13
2023-09-09T19:18:41.814Z,11.00
2023-09-09T19:21:08.347Z,10.52
2023-09-09T19:23:34.814Z,11.00
2023-09-09T19:26:01.351Z,11.35
2023-09-09T19:28:28.559Z,11.20
2023-09-09T19:30:55.093Z,11.52
2023-09-09T19:33:21.744Z,10.30
2023-09-09T19:35:48.473Z,10.90
2023-09-09T19:38:15.048Z,10.75
2023-09-09T19:40:41.573Z,11.77
2023-09-09T19:43:08.818Z,11.93
2023-09-09T19:45:35.579Z,11.80
2023-09-09T19:48:02.077Z,12.27
2023-09-09T19:50:29.142Z,13.00
2023-09-09T19:52:56.235Z,12.17
2023-09-09T19:55:22.880Z,11.73
2023-09-09T19:57:49.423Z,12.80
2023-09-09T20:00:16.292Z,12.32
2023-09-09T20:02:42.991Z,12.23
2023-09-09T20:05:10.385Z,13.27
2023-09-09T20:07:36.907Z,13.68
2023-09-09T20:10:11.353Z,13.68
2023-09-09T20:12:38.884Z,12.98
2023-09-09T20:15:06.003Z,13.93
2023-09-09T20:17:32.565Z,13.40
2023-09-09T20:19:59.398Z,13.30
2023-09-09T20:22:29.085Z,13.07
2023-09-09T20:24:56.053Z,11.85
2023-09-09T20:27:22.534Z,11.85
2023-09-09T20:29:49.017Z,11.45
2023-09-09T20:32:15.536Z,12.40
2023-09-09T20:34:42.789Z,11.77
2023-09-09T20:37:09.386Z,12.10
2023-09-09T20:39:35.969Z,13.77
2023-09-09T20:42:02.933Z,12.80
2023-09-09T20:44:30.794Z,12.85
2023-09-09T20:46:57.393Z,13.10
2023-09-09T20:49:23.947Z,12.45
2023-09-09T20:51:50.525Z,13.25
2023-09-09T20:54:17.064Z,12.75
2023-09-09T20:56:43.594Z,12.82
2023-09-09T20:59:10.221Z,13.43
2023-09-09T21:01:36.788Z,13.15
2023-09-09T21:04:04.224Z,14.05
2023-09-09T21:06:31.192Z,14.05
2023-09-09T21:08:57.797Z,14.50
2023-09-09T21:11:24.364Z,14.95
2023-09-09T21:13:50.957Z,15.68
2023-09-09T21:16:17.536Z,16.55
2023-09-09T21:18:47.294Z,15.57
2023-09-09T21:21:14.532Z,16.42
2023-09-09T21:23:42.006Z,17.58
2023-09-09T21:26:08.765Z,17.13
2023-09-09T21:28:35.465Z,18.17
2023-09-09T21:31:02.245Z,17.05
2023-09-09T21:33:28.926Z,16.52
2023-09-09T21:35:55.993Z,15.75
2023-09-09T21:38:22.434Z,15.50
2023-09-09T21:40:48.959Z,15.48
2023-09-09T21:43:17.106Z,15.27
2023-09-09T21:45:43.699Z,14.80
2023-09-09T21:48:11.521Z,15.43
2023-09-09T21:50:38.189Z,15.70
2023-09-09T21:53:04.953Z,14.90
2023-09-09T21:55:34.941Z,15.38
2023-09-09T21:58:01.434Z,16.63
2023-09-09T22:00:28.005Z,15.35
2023-09-09T22:02:54.794Z,16.33
2023-09-09T22:05:21.398Z,18.00
2023-09-09T22:07:47.960Z,17.33
2023-09-09T22:10:17.418Z,16.13
2023-09-09T22:12:43.891Z,15.98
2023-09-09T22:15:11.503Z,16.25
2023-09-09T22:17:39.024Z,17.05
2023-09-09T22:20:12.832Z,15.63
2023-09-09T22:22:40.815Z,16.60
2023-09-09T22:25:12.223Z,17.30
2023-09-09T22:27:39.121Z,18.23
2023-09-09T22:30:06.776Z,17.13
2023-09-09T22:32:33.620Z,16.88
2023-09-09T22:35:06.795Z,17.73
2023-09-09T22:37:35.426Z,16.73
2023-09-09T22:40:02.444Z,18.30
2023-09-09T22:42:29.006Z,17.35
2023-09-09T22:44:55.538Z,18.23
2023-09-09T22:47:23.192Z,18.43
2023-09-09T22:49:53.435Z,16.63
2023-09-09T22:52:20.474Z,18.42
2023-09-09T22:54:47.219Z,18.98
2023-09-09T22:57:14.660Z,17.27
2023-09-09T22:59:41.129Z,18.00
2023-09-09T23:02:07.742Z,18.35
2023-09-09T23:04:34.411Z,17.85
2023-09-09T23:07:01.062Z,17.27
2023-09-09T23:09:27.526Z,16.85
2023-09-09T23:11:53.985Z,18.48
2023-09-09T23:14:23.665Z,17.15
2023-09-09T23:16:50.860Z,15.50
2023-09-09T23:19:17.429Z,17.15
2023-09-09T23:21:43.875Z,16.45
2023-09-09T23:24:10.457Z,17.55
2023-09-09T23:26:37.805Z,17.15
2023-09-09T23:29:05.630Z,17.33
2023-09-09T23:31:36.074Z,18.13
2023-09-09T23:34:03.296Z,18.15
2023-09-09T23:36:29.959Z,17.75
2023-09-09T23:38:56.644Z,19.02
2023-09-09T23:41:23.181Z,17.65
2023-09-09T23:43:49.992Z,18.02
2023-09-09T23:46:16.831Z,18.15
2023-09-09T23:48:43.381Z,17.25
2023-09-09T23:51:10.112Z,17.50
2023-09-09T23:53:36.644Z,18.20
2023-09-09T23:56:03.389Z,19.58
2023-09-09T23:58:29.926Z,20.42
